Time;durP1;ratioP1;P1;durP2;ratioP2;P2;SDS_P1;SDS_P2;PMS_P1;PMS_P2;Temp;Humidity;BMP_temperature;BMP_pressure;BME280_temperature;BME280_humidity;BME280_pressure;Samples;Min_cycle;Max_cycle;Signal;HPM_P1;HPM_P2
2022/08/07 00:00:51;;;;;;;0.70;0.70;;;25.00;65.30;;;;;;5082039;27;44270;-72
2022/08/07 00:03:23;;;;;;;0.40;0.40;;;25.10;64.70;;;;;;5088626;27;43895;-71
2022/08/07 00:05:52;;;;;;;0.57;0.57;;;25.20;64.40;;;;;;5088267;27;43943;-73
2022/08/07 00:08:21;;;;;;;0.60;0.60;;;25.20;64.50;;;;;;5088135;27;44010;-72
2022/08/07 00:10:49;;;;;;;0.33;0.33;;;25.10;64.50;;;;;;5069906;27;45494;-71
2022/08/07 00:13:27;;;;;;;0.50;0.50;;;25.00;64.90;;;;;;5087792;27;44217;-70
2022/08/07 00:15:56;;;;;;;0.47;0.47;;;25.00;65.10;;;;;;5088512;27;44055;-71
2022/08/07 00:18:27;;;;;;;0.43;0.43;;;25.00;65.10;;;;;;5087077;27;43779;-72
2022/08/07 00:20:56;;;;;;;0.30;0.30;;;24.90;65.10;;;;;;5087918;27;44020;-72
2022/08/07 00:23:28;;;;;;;0.60;0.60;;;24.90;65.70;;;;;;5087996;27;43414;-70
2022/08/07 00:25:59;;;;;;;0.50;0.50;;;24.80;65.70;;;;;;5068662;28;44001;-71
2022/08/07 00:28:45;;;;;;;0.40;0.40;;;24.80;65.60;;;;;;5087686;27;43588;-72
2022/08/07 00:31:24;;;;;;;0.50;0.50;;;24.80;65.40;;;;;;5082790;27;43939;-72
2022/08/07 00:34:09;;;;;;;0.43;0.43;;;24.70;66.10;;;;;;5087866;27;44063;-72
2022/08/07 00:36:38;;;;;;;0.53;0.53;;;24.70;66.70;;;;;;5066246;28;43576;-70
2022/08/07 00:39:10;;;;;;;0.43;0.43;;;24.80;65.60;;;;;;5079453;27;43851;-72
2022/08/07 00:41:48;;;;;;;0.45;0.45;;;25.00;65.20;;;;;;5087244;27;44100;-71
2022/08/07 00:44:28;;;;;;;0.50;0.50;;;25.10;64.60;;;;;;5069276;27;43984;-72
2022/08/07 00:46:59;;;;;;;0.40;0.40;;;25.20;64.20;;;;;;5087829;27;44019;-72
2022/08/07 00:49:29;;;;;;;0.53;0.53;;;25.20;64.30;;;;;;5087539;27;44121;-72
2022/08/07 00:52:17;;;;;;;0.43;0.43;;;25.10;64.30;;;;;;5069132;28;44660;-71
2022/08/07 00:54:47;;;;;;;0.40;0.40;;;25.10;64.90;;;;;;5068891;28;44047;-72
2022/08/07 00:57:21;;;;;;;0.30;0.30;;;25.00;64.90;;;;;;5088010;27;43954;-71
2022/08/07 00:59:54;;;;;;;0.30;0.30;;;25.00;64.90;;;;;;5069046;28;46290;-72
2022/08/07 01:02:23;;;;;;;0.40;0.40;;;24.90;65.00;;;;;;5069248;28;45558;-72
2022/08/07 01:05:00;;;;;;;0.50;0.50;;;24.80;65.60;;;;;;5087230;27;43820;-72
2022/08/07 01:07:29;;;;;;;0.40;0.40;;;24.80;65.60;;;;;;5081956;27;43931;-72
2022/08/07 01:09:58;;;;;;;0.47;0.47;;;24.80;65.50;;;;;;5087295;27;43900;-72
2022/08/07 01:12:37;;;;;;;0.40;0.40;;;24.80;65.40;;;;;;5087198;27;43387;-71
2022/08/07 01:15:06;;;;;;;0.40;0.40;;;24.70;66.00;;;;;;5068665;27;43941;-73
2022/08/07 01:17:44;;;;;;;0.40;0.40;;;24.70;65.80;;;;;;5069346;27;44029;-72
2022/08/07 01:20:15;;;;;;;0.53;0.53;;;24.80;65.40;;;;;;5106525;27;43939;-73
2022/08/07 01:22:45;;;;;;;1.20;0.53;;;24.90;64.90;;;;;;5088058;27;44726;-73
2022/08/07 01:25:34;;;;;;;0.43;0.43;;;25.10;64.60;;;;;;5088074;27;43972;-72
2022/08/07 01:28:22;;;;;;;0.40;0.40;;;25.10;64.10;;;;;;5107605;27;43970;-71
2022/08/07 01:30:52;;;;;;;0.40;0.40;;;25.10;64.30;;;;;;5088143;27;43964;-72
2022/08/07 01:33:22;;;;;;;0.40;0.40;;;25.10;64.50;;;;;;5088207;27;44138;-73
2022/08/07 01:35:59;;;;;;;0.40;0.40;;;25.00;64.80;;;;;;5088494;27;43900;-73
2022/08/07 01:38:37;;;;;;;0.30;0.30;;;25.00;65.00;;;;;;5092211;27;44233;-72
2022/08/07 01:41:16;;;;;;;0.50;0.50;;;24.90;64.90;;;;;;5069628;27;45576;-72
2022/08/07 01:43:54;;;;;;;0.30;0.30;;;24.80;65.10;;;;;;5071956;27;44553;-72
2022/08/07 01:46:22;;;;;;;0.40;0.40;;;24.80;65.60;;;;;;5100269;27;43964;-72
2022/08/07 01:48:52;;;;;;;0.40;0.40;;;24.80;65.50;;;;;;5110633;27;44019;-73
2022/08/07 01:51:24;;;;;;;0.50;0.50;;;24.70;65.30;;;;;;5091409;27;44062;-73
2022/08/07 01:54:13;;;;;;;0.30;0.30;;;24.70;65.60;;;;;;5109626;27;43837;-73
2022/08/07 01:57:02;;;;;;;0.50;0.50;;;24.70;66.00;;;;;;5073273;27;44053;-73
2022/08/07 01:59:34;;;;;;;0.50;0.50;;;24.80;65.30;;;;;;5091694;27;43517;-73
2022/08/07 02:02:05;;;;;;;0.40;0.40;;;24.90;65.00;;;;;;5091320;27;44402;-72
2022/08/07 02:04:40;;;;;;;0.37;0.37;;;25.00;64.50;;;;;;5090952;27;44436;-72
2022/08/07 02:07:28;;;;;;;0.50;0.50;;;25.10;64.10;;;;;;5091340;27;43962;-72
2022/08/07 02:10:07;;;;;;;0.40;0.40;;;25.10;64.00;;;;;;5091585;27;43626;-73
2022/08/07 02:12:42;;;;;;;0.50;0.50;;;25.10;64.20;;;;;;5091024;27;44340;-71
2022/08/07 02:15:23;;;;;;;0.37;0.37;;;25.00;64.50;;;;;;5091088;27;45529;-72
2022/08/07 02:17:55;;;;;;;0.40;0.40;;;25.00;64.70;;;;;;5090856;27;43932;-71
2022/08/07 02:20:23;;;;;;;0.33;0.33;;;24.90;64.70;;;;;;5091636;27;44182;-73
2022/08/07 02:22:57;;;;;;;0.40;0.40;;;24.90;64.90;;;;;;5090687;27;43926;-72
2022/08/07 02:25:30;;;;;;;0.37;0.37;;;24.80;65.30;;;;;;5090814;27;43853;-73
2022/08/07 02:28:18;;;;;;;0.50;0.50;;;24.80;65.30;;;;;;5086495;27;43354;-72
2022/08/07 02:30:56;;;;;;;0.40;0.40;;;24.70;65.10;;;;;;5071870;28;43611;-72
2022/08/07 02:33:25;;;;;;;0.50;0.50;;;24.70;65.30;;;;;;5071208;28;45702;-71
2022/08/07 02:36:14;;;;;;;0.30;0.30;;;24.70;65.80;;;;;;5089516;27;43957;-72
2022/08/07 02:39:04;;;;;;;0.40;0.40;;;24.70;65.20;;;;;;5071299;28;43425;-72
2022/08/07 02:41:48;;;;;;;0.30;0.30;;;24.80;64.90;;;;;;5071116;28;44118;-73
2022/08/07 02:44:23;;;;;;;0.37;0.37;;;25.00;64.50;;;;;;5070873;28;45747;-72
2022/08/07 02:46:54;;;;;;;0.50;0.50;;;25.10;63.80;;;;;;5083493;27;43999;-71
2022/08/07 02:49:24;;;;;;;0.37;0.37;;;25.10;63.80;;;;;;5070628;27;43890;-73
2022/08/07 02:52:15;;;;;;;0.40;0.40;;;25.10;64.00;;;;;;5089695;27;43389;-72
2022/08/07 02:54:48;;;;;;;0.40;0.40;;;25.00;64.20;;;;;;5070729;28;44049;-72
2022/08/07 02:57:21;;;;;;;0.50;0.50;;;25.00;64.40;;;;;;5071023;28;43944;-71
2022/08/07 02:59:55;;;;;;;0.30;0.30;;;24.90;64.40;;;;;;5071017;28;44047;-71
2022/08/07 03:02:34;;;;;;;0.40;0.40;;;24.90;64.60;;;;;;5071217;27;43877;-72
2022/08/07 03:05:06;;;;;;;0.40;0.40;;;24.80;65.00;;;;;;5070629;27;45323;-73
2022/08/07 03:07:35;;;;;;;0.47;0.47;;;24.80;65.20;;;;;;5089034;27;43421;-72
2022/08/07 03:10:29;;;;;;;0.40;0.40;;;24.80;65.10;;;;;;5070652;28;43396;-72
2022/08/07 03:13:00;;;;;;;2.10;0.60;;;24.70;65.00;;;;;;5089501;27;43835;-73
2022/08/07 03:15:31;;;;;;;1.13;0.40;;;24.70;65.40;;;;;;5070327;28;44784;-72
2022/08/07 03:18:19;;;;;;;0.40;0.40;;;24.70;65.70;;;;;;5070611;27;44325;-73
2022/08/07 03:20:55;;;;;;;0.50;0.50;;;24.70;64.80;;;;;;5070839;27;44020;-72
2022/08/07 03:23:23;;;;;;;0.30;0.30;;;24.80;64.90;;;;;;5089439;27;43931;-72
2022/08/07 03:26:01;;;;;;;0.30;0.30;;;25.00;64.20;;;;;;5070297;28;44846;-73
2022/08/07 03:28:34;;;;;;;1.10;0.37;;;25.10;63.80;;;;;;5070062;28;43946;-73
2022/08/07 03:31:19;;;;;;;1.57;0.50;;;25.10;63.70;;;;;;5070394;28;43930;-72
2022/08/07 03:34:08;;;;;;;0.50;0.50;;;25.00;63.90;;;;;;5070918;28;44023;-72
2022/08/07 03:36:45;;;;;;;0.40;0.40;;;24.90;64.30;;;;;;5081381;27;44232;-72
2022/08/07 03:39:16;;;;;;;0.85;0.40;;;24.90;64.30;;;;;;5089794;27;44372;-73
2022/08/07 03:42:05;;;;;;;0.30;0.30;;;24.80;64.40;;;;;;5089129;27;44157;-72
2022/08/07 03:44:36;;;;;;;0.33;0.33;;;24.80;64.60;;;;;;5089841;27;43387;-72
2022/08/07 03:47:09;;;;;;;0.30;0.30;;;24.80;65.10;;;;;;5108175;27;43856;-72
2022/08/07 03:49:46;;;;;;;0.40;0.40;;;24.70;65.10;;;;;;5089643;27;43482;-72
2022/08/07 03:52:21;;;;;;;0.40;0.40;;;24.70;65.80;;;;;;5089752;27;43960;-73
2022/08/07 03:54:58;;;;;;;0.40;0.40;;;24.70;65.00;;;;;;5089810;27;44098;-73
2022/08/07 03:57:41;;;;;;;0.33;0.33;;;24.60;65.40;;;;;;5089305;27;45305;-72
2022/08/07 04:00:36;;;;;;;0.33;0.33;;;24.60;65.10;;;;;;5089032;27;44105;-73
2022/08/07 04:03:05;;;;;;;0.20;0.20;;;24.70;65.40;;;;;;5108187;27;43900;-73
2022/08/07 04:05:40;;;;;;;0.40;0.40;;;24.80;64.20;;;;;;5089692;27;43415;-73
2022/08/07 04:08:19;;;;;;;0.40;0.40;;;25.00;63.90;;;;;;5086374;27;45881;-72
2022/08/07 04:10:49;;;;;;;0.33;0.33;;;25.10;63.60;;;;;;5069876;27;44375;-73
2022/08/07 04:13:39;;;;;;;0.30;0.30;;;25.10;63.70;;;;;;5070569;28;43928;-73
2022/08/07 04:16:29;;;;;;;0.30;0.30;;;25.00;63.80;;;;;;5070182;27;44005;-73
2022/08/07 04:19:02;;;;;;;0.50;0.40;;;24.90;64.10;;;;;;5083701;27;45637;-73
2022/08/07 04:21:42;;;;;;;0.40;0.40;;;24.90;64.20;;;;;;5107765;27;43932;-72
2022/08/07 04:24:30;;;;;;;0.40;0.40;;;24.80;64.30;;;;;;5089058;27;43912;-72
2022/08/07 04:27:08;;;;;;;0.50;0.50;;;24.80;64.50;;;;;;5082831;27;43932;-73
2022/08/07 04:29:48;;;;;;;0.23;0.23;;;24.70;64.80;;;;;;5064950;27;44785;-74
2022/08/07 04:32:47;;;;;;;0.40;0.40;;;24.80;64.60;;;;;;5069503;28;44038;-72
2022/08/07 04:35:28;;;;;;;0.40;0.40;;;24.80;64.00;;;;;;5069623;27;43953;-71
2022/08/07 04:38:06;;;;;;;0.30;0.30;;;25.00;63.90;;;;;;5069869;27;44116;-72
2022/08/07 04:40:40;;;;;;;0.87;0.33;;;25.00;63.90;;;;;;5069131;27;45352;-73
2022/08/07 04:43:26;;;;;;;0.40;0.40;;;25.00;64.00;;;;;;5069229;28;44457;-74
2022/08/07 04:46:18;;;;;;;0.40;0.40;;;24.90;64.20;;;;;;5071003;27;43354;-72
2022/08/07 04:49:01;;;;;;;0.37;0.37;;;24.80;64.30;;;;;;5089332;27;44229;-73
2022/08/07 04:51:53;;;;;;;0.30;0.30;;;24.80;64.40;;;;;;5088613;27;44058;-73
2022/08/07 04:54:28;;;;;;;0.30;0.30;;;24.80;64.60;;;;;;5088867;27;44397;-71
2022/08/07 04:57:01;;;;;;;0.40;0.40;;;24.70;64.90;;;;;;5088534;27;43989;-72
2022/08/07 04:59:55;;;;;;;1.20;0.30;;;24.70;64.90;;;;;;5083831;28;43889;-72
2022/08/07 05:02:48;;;;;;;0.47;0.20;;;24.70;64.50;;;;;;5068988;27;44053;-73
2022/08/07 05:05:22;;;;;;;0.43;0.43;;;24.80;64.00;;;;;;5085189;27;44026;-73
2022/08/07 05:08:14;;;;;;;0.40;0.40;;;25.00;63.70;;;;;;5082567;28;43963;-74
2022/08/07 05:10:45;;;;;;;0.30;0.30;;;25.00;63.60;;;;;;5095608;27;43824;-72
2022/08/07 05:13:16;;;;;;;0.40;0.40;;;25.00;63.70;;;;;;5095222;27;46920;-73
2022/08/07 05:16:06;;;;;;;0.37;0.37;;;24.90;64.00;;;;;;5095292;27;45145;-73
2022/08/07 05:18:36;;;;;;;0.47;0.47;;;24.80;64.00;;;;;;5095175;27;43976;-72
2022/08/07 05:21:09;;;;;;;0.40;0.40;;;24.80;64.20;;;;;;5091259;28;44013;-72
2022/08/07 05:23:39;;;;;;;0.50;0.50;;;24.70;64.30;;;;;;5075424;28;44040;-72
2022/08/07 05:26:11;;;;;;;0.33;0.33;;;24.70;64.60;;;;;;5075658;28;43463;-71
2022/08/07 05:28:55;;;;;;;0.40;0.40;;;24.70;64.60;;;;;;5093881;27;44027;-72
2022/08/07 05:31:28;;;;;;;0.23;0.23;;;24.70;64.30;;;;;;5077671;27;44097;-73
2022/08/07 05:34:06;;;;;;;0.50;0.50;;;24.80;63.90;;;;;;5095071;27;46480;-73
2022/08/07 05:36:43;;;;;;;0.40;0.40;;;24.90;63.60;;;;;;5094707;27;43927;-72
2022/08/07 05:39:36;;;;;;;0.33;0.33;;;25.00;63.60;;;;;;5112596;27;43804;-72
2022/08/07 05:42:26;;;;;;;0.20;0.20;;;24.90;63.80;;;;;;5094781;27;43943;-72
2022/08/07 05:45:05;;;;;;;0.30;0.30;;;24.80;64.00;;;;;;5076438;28;44038;-72
2022/08/07 05:47:53;;;;;;;0.40;0.40;;;24.80;64.10;;;;;;5090129;27;45575;-72
2022/08/07 05:50:33;;;;;;;0.30;0.30;;;24.70;64.30;;;;;;5094988;27;44075;-73
2022/08/07 05:53:15;;;;;;;0.37;0.37;;;24.70;64.40;;;;;;5095271;27;43581;-73
2022/08/07 05:56:05;;;;;;;0.23;0.23;;;24.60;65.50;;;;;;5094595;27;44049;-72
2022/08/07 05:58:38;;;;;;;0.40;0.40;;;24.60;64.60;;;;;;5094639;27;44020;-72
2022/08/07 06:01:10;;;;;;;0.50;0.50;;;24.70;64.50;;;;;;5094873;27;43992;-72
2022/08/07 06:03:48;;;;;;;0.47;0.47;;;24.70;63.60;;;;;;5095202;27;43508;-72
2022/08/07 06:06:24;;;;;;;0.70;0.70;;;24.80;59.50;;;;;;5094672;27;44994;-71
2022/08/07 06:09:02;;;;;;;0.50;0.50;;;24.80;60.10;;;;;;5081695;28;43996;-72
2022/08/07 06:11:33;;;;;;;1.27;0.63;;;24.80;62.00;;;;;;5099772;27;43398;-73
2022/08/07 06:14:04;;;;;;;0.50;0.50;;;24.70;60.00;;;;;;5095001;27;44002;-72
2022/08/07 06:16:51;;;;;;;0.70;0.70;;;24.60;58.10;;;;;;5094586;27;44898;-72
2022/08/07 06:19:28;;;;;;;0.40;0.40;;;24.60;60.70;;;;;;5094375;27;44537;-72
2022/08/07 06:22:18;;;;;;;0.43;0.43;;;24.50;60.60;;;;;;5093861;27;43879;-73
2022/08/07 06:25:01;;;;;;;1.53;0.57;;;24.50;58.50;;;;;;5091646;27;44077;-72
2022/08/07 06:27:30;;;;;;;0.40;0.40;;;24.50;56.40;;;;;;5091003;27;43843;-72
2022/08/07 06:30:18;;;;;;;0.60;0.60;;;24.50;56.10;;;;;;5091130;27;43982;-73
2022/08/07 06:33:04;;;;;;;0.60;0.60;;;24.50;55.60;;;;;;5089695;27;44017;-71
2022/08/07 06:35:44;;;;;;;1.53;0.87;;;24.60;55.20;;;;;;5071886;27;44192;-71
2022/08/07 06:38:32;;;;;;;0.50;0.50;;;24.60;56.10;;;;;;5071131;28;44009;-72
2022/08/07 06:41:05;;;;;;;0.83;0.60;;;24.60;58.20;;;;;;5090474;27;44766;-72
2022/08/07 06:43:41;;;;;;;0.67;0.67;;;24.50;57.20;;;;;;5071136;27;43798;-72
2022/08/07 06:46:26;;;;;;;0.53;0.53;;;24.50;57.50;;;;;;5089949;27;43435;-72
2022/08/07 06:49:03;;;;;;;0.60;0.60;;;24.50;58.50;;;;;;5082325;27;46054;-72
2022/08/07 06:51:37;;;;;;;1.13;0.50;;;24.40;59.30;;;;;;5090619;27;44586;-72
2022/08/07 06:54:20;;;;;;;0.57;0.57;;;24.40;59.10;;;;;;5091032;27;43325;-73
2022/08/07 06:57:10;;;;;;;0.50;0.50;;;24.40;59.30;;;;;;5090278;27;43960;-72
2022/08/07 06:59:44;;;;;;;0.50;0.50;;;24.40;59.80;;;;;;5064541;28;45427;-72
2022/08/07 07:02:33;;;;;;;0.60;0.60;;;24.40;60.20;;;;;;5067764;27;44838;-73
2022/08/07 07:05:20;;;;;;;0.40;0.40;;;24.30;60.10;;;;;;5077857;28;43392;-73
2022/08/07 07:08:11;;;;;;;0.50;0.50;;;24.40;60.10;;;;;;5091284;27;44031;-72
2022/08/07 07:10:53;;;;;;;0.73;0.57;;;24.50;60.00;;;;;;5108933;27;44123;-71
2022/08/07 07:13:29;;;;;;;0.53;0.53;;;24.60;59.70;;;;;;5090296;27;43999;-73
2022/08/07 07:16:20;;;;;;;0.50;0.50;;;24.80;59.60;;;;;;5108891;27;43963;-73
2022/08/07 07:18:50;;;;;;;0.53;0.53;;;24.80;59.60;;;;;;5109106;27;43980;-72
2022/08/07 07:21:20;;;;;;;0.30;0.30;;;24.80;59.80;;;;;;5090163;27;45836;-71
2022/08/07 07:23:54;;;;;;;0.60;0.60;;;24.70;59.90;;;;;;5108954;27;43786;-73
2022/08/07 07:26:39;;;;;;;0.47;0.47;;;24.60;60.00;;;;;;5109046;27;43308;-72
2022/08/07 07:29:12;;;;;;;0.50;0.50;;;24.60;60.20;;;;;;5109446;27;43999;-73
2022/08/07 07:32:00;;;;;;;0.40;0.40;;;24.50;60.50;;;;;;5108692;27;43918;-72
2022/08/07 07:34:30;;;;;;;0.53;0.53;;;24.50;60.60;;;;;;5106192;27;43964;-72
2022/08/07 07:37:03;;;;;;;0.50;0.50;;;24.50;60.70;;;;;;5072466;27;43940;-72
2022/08/07 07:39:48;;;;;;;0.40;0.40;;;24.40;60.80;;;;;;5096982;27;44021;-72
2022/08/07 07:42:22;;;;;;;0.30;0.30;;;24.40;61.00;;;;;;5108233;27;43681;-72
2022/08/07 07:45:01;;;;;;;0.50;0.50;;;24.40;61.20;;;;;;5089420;27;44011;-73
2022/08/07 07:47:29;;;;;;;0.60;0.60;;;24.40;61.30;;;;;;5070286;27;43980;-72
2022/08/07 07:50:17;;;;;;;0.50;0.50;;;24.40;61.00;;;;;;5089213;27;43911;-72
2022/08/07 07:53:05;;;;;;;0.60;0.60;;;24.50;60.80;;;;;;5088561;27;43946;-73
2022/08/07 07:55:52;;;;;;;0.40;0.40;;;24.60;60.30;;;;;;5070434;27;45890;-72
2022/08/07 07:58:25;;;;;;;0.53;0.47;;;24.80;60.10;;;;;;5098154;27;43397;-72
2022/08/07 08:00:56;;;;;;;0.60;0.60;;;24.80;60.20;;;;;;5092876;27;43850;-73
2022/08/07 08:03:28;;;;;;;0.50;0.50;;;24.70;60.20;;;;;;5070314;28;45794;-73
2022/08/07 08:06:16;;;;;;;0.47;0.47;;;24.60;60.50;;;;;;5069345;28;44264;-72
2022/08/07 08:08:44;;;;;;;0.40;0.40;;;24.60;60.70;;;;;;5063334;28;43968;-72
2022/08/07 08:11:15;;;;;;;0.33;0.33;;;24.60;60.90;;;;;;5088858;27;43941;-71
2022/08/07 08:14:03;;;;;;;0.50;0.50;;;24.50;61.10;;;;;;5088382;27;43995;-73
2022/08/07 08:16:37;;;;;;;0.63;0.63;;;24.50;61.40;;;;;;5088367;27;44016;-73
2022/08/07 08:19:09;;;;;;;0.60;0.60;;;24.40;61.10;;;;;;5088374;27;43862;-73
2022/08/07 08:27:46;;;;;;;0.60;0.60;;;24.70;60.40;;;;;;5087901;27;43355;-73
2022/08/07 08:30:23;;;;;;;0.50;0.50;;;24.70;60.60;;;;;;5088419;27;43397;-72
2022/08/07 08:32:56;;;;;;;0.60;0.60;;;24.70;60.90;;;;;;5088760;27;43826;-72
2022/08/07 08:35:25;;;;;;;0.30;0.30;;;24.50;60.80;;;;;;5088226;27;43753;-71
2022/08/07 08:38:05;;;;;;;0.50;0.50;;;24.50;61.10;;;;;;5087877;27;43463;-72
2022/08/07 08:40:37;;;;;;;0.50;0.50;;;24.50;61.30;;;;;;5087827;27;44022;-73
2022/08/07 08:43:10;;;;;;;0.60;0.60;;;24.50;61.50;;;;;;5088398;27;44179;-72
2022/08/07 08:45:44;;;;;;;0.50;0.50;;;24.40;61.90;;;;;;5079772;27;44141;-73
2022/08/07 08:48:32;;;;;;;0.50;0.50;;;24.40;61.80;;;;;;5092018;27;44078;-72
2022/08/07 08:51:07;;;;;;;0.50;0.50;;;24.40;62.60;;;;;;5088964;27;43864;-72
2022/08/07 08:53:52;;;;;;;0.50;0.50;;;24.30;61.90;;;;;;5107758;27;43462;-73
2022/08/07 08:56:24;;;;;;;0.60;0.60;;;24.30;62.30;;;;;;5088945;27;45927;-73
2022/08/07 08:58:55;;;;;;;0.40;0.40;;;24.30;62.10;;;;;;5081161;27;44116;-72
2022/08/07 09:01:26;;;;;;;0.50;0.50;;;24.40;61.80;;;;;;5082011;27;43999;-72
2022/08/07 09:04:18;;;;;;;0.43;0.43;;;24.50;61.40;;;;;;5090775;27;44015;-72
2022/08/07 09:06:55;;;;;;;0.43;0.43;;;24.70;61.10;;;;;;5107302;27;44046;-72
2022/08/07 09:09:35;;;;;;;0.50;0.50;;;24.70;60.70;;;;;;5101821;27;43853;-70
2022/08/07 09:12:12;;;;;;;0.60;0.60;;;24.70;60.90;;;;;;5081163;27;44014;-71
2022/08/07 09:15:21;;;;;;;0.63;0.63;;;24.70;61.10;;;;;;5087933;27;43994;-72
2022/08/07 09:18:19;;;;;;;0.50;0.50;;;24.60;61.20;;;;;;5087025;27;43886;-71
2022/08/07 09:20:57;;;;;;;0.60;0.60;;;24.50;61.40;;;;;;5069097;28;44843;-71
2022/08/07 09:23:37;;;;;;;0.70;0.70;;;24.40;61.60;;;;;;5087452;27;43446;-72
2022/08/07 09:26:30;;;;;;;0.40;0.40;;;24.40;62.00;;;;;;5083119;27;44182;-73
2022/08/07 09:29:01;;;;;;;0.80;0.80;;;24.40;62.10;;;;;;5087195;27;44018;-72
2022/08/07 09:31:54;;;;;;;0.60;0.60;;;24.30;62.00;;;;;;5087239;27;44018;-72
2022/08/07 09:34:26;;;;;;;0.50;0.50;;;24.30;62.10;;;;;;5087642;27;43805;-72
2022/08/07 09:37:00;;;;;;;0.50;0.50;;;24.30;62.50;;;;;;5087886;27;43971;-71
2022/08/07 09:39:37;;;;;;;0.73;0.50;;;24.30;62.50;;;;;;5087017;27;43913;-72
2022/08/07 09:42:40;;;;;;;0.60;0.60;;;24.30;62.20;;;;;;5086408;27;43999;-71
2022/08/07 09:45:12;;;;;;;0.43;0.43;;;24.50;61.80;;;;;;5068640;27;43928;-72
2022/08/07 09:48:17;;;;;;;0.60;0.60;;;24.60;61.40;;;;;;5087434;27;44037;-72
2022/08/07 09:50:59;;;;;;;0.63;0.63;;;24.70;61.30;;;;;;5100910;27;44938;-72
2022/08/07 09:53:29;;;;;;;0.70;0.70;;;24.70;61.30;;;;;;5106484;27;43962;-72
2022/08/07 09:56:38;;;;;;;0.57;0.57;;;24.60;61.40;;;;;;5088167;27;44129;-73
2022/08/07 09:59:24;;;;;;;0.70;0.70;;;24.50;61.60;;;;;;5067004;27;43870;-72
2022/08/07 10:02:25;;;;;;;0.83;0.70;;;24.50;61.70;;;;;;5090500;27;44791;-71
2022/08/07 10:05:10;;;;;;;0.53;0.53;;;24.50;61.90;;;;;;5086712;27;43918;-72
2022/08/07 10:07:48;;;;;;;0.67;0.67;;;24.40;62.00;;;;;;5095141;27;43293;-71
2022/08/07 10:10:32;;;;;;;0.67;0.67;;;24.40;62.10;;;;;;5084273;27;43936;-72
2022/08/07 10:13:40;;;;;;;0.60;0.60;;;24.40;62.20;;;;;;5105357;27;44036;-72
2022/08/07 10:16:40;;;;;;;0.53;0.53;;;24.40;62.20;;;;;;5086467;27;43993;-72
2022/08/07 10:19:26;;;;;;;0.60;0.60;;;24.30;63.30;;;;;;5090035;27;43432;-72
2022/08/07 10:22:07;;;;;;;0.67;0.67;;;24.40;63.20;;;;;;5103717;27;43354;-72
2022/08/07 10:24:50;;;;;;;0.60;0.60;;;24.40;62.00;;;;;;5099509;27;44668;-72
2022/08/07 10:27:36;;;;;;;0.60;0.60;;;24.50;61.70;;;;;;5105832;27;43978;-71
2022/08/07 10:30:15;;;;;;;0.57;0.57;;;24.70;61.30;;;;;;5090046;27;43963;-71
2022/08/07 10:33:22;;;;;;;0.60;0.60;;;24.70;61.30;;;;;;5090401;27;43405;-72
2022/08/07 10:36:18;;;;;;;0.80;0.80;;;24.70;61.30;;;;;;5089639;27;45000;-71
2022/08/07 10:38:58;;;;;;;0.60;0.60;;;24.60;61.60;;;;;;5108359;27;43785;-71
2022/08/07 10:41:33;;;;;;;0.70;0.70;;;24.50;61.70;;;;;;5102281;27;43960;-72
2022/08/07 10:44:24;;;;;;;0.60;0.60;;;24.50;61.80;;;;;;5094819;27;44026;-73
2022/08/07 10:47:12;;;;;;;0.70;0.70;;;24.50;61.90;;;;;;5089921;27;43949;-73
2022/08/07 10:49:47;;;;;;;0.60;0.60;;;24.40;62.20;;;;;;5070705;28;44287;-71
2022/08/07 10:52:21;;;;;;;0.60;0.60;;;24.40;62.90;;;;;;5089773;27;44127;-70
2022/08/07 10:55:06;;;;;;;0.60;0.60;;;24.40;62.20;;;;;;5085524;27;44008;-72
2022/08/07 10:58:01;;;;;;;0.80;0.80;;;24.40;62.30;;;;;;5089626;27;43952;-72
2022/08/07 11:00:36;;;;;;;0.63;0.63;;;24.30;62.50;;;;;;5082878;27;43423;-72
2022/08/07 11:03:14;;;;;;;0.60;0.60;;;24.40;62.30;;;;;;5089711;27;44104;-72
2022/08/07 11:05:46;;;;;;;0.70;0.70;;;24.40;61.90;;;;;;5089855;27;43990;-72
2022/08/07 11:08:26;;;;;;;0.70;0.70;;;24.50;61.70;;;;;;5088885;27;43966;-72
2022/08/07 11:10:59;;;;;;;0.80;0.80;;;24.70;61.40;;;;;;5088894;27;43333;-72
2022/08/07 11:13:31;;;;;;;0.70;0.70;;;24.70;61.30;;;;;;5089506;27;43995;-71
2022/08/07 11:16:22;;;;;;;0.60;0.60;;;24.70;61.30;;;;;;5090908;27;43419;-71
2022/08/07 11:19:09;;;;;;;0.70;0.70;;;24.60;61.60;;;;;;5109263;27;43936;-73
2022/08/07 11:21:39;;;;;;;0.43;0.43;;;24.50;61.70;;;;;;5108644;27;43886;-73
2022/08/07 11:24:15;;;;;;;0.83;0.83;;;24.50;61.70;;;;;;5109104;27;43894;-72
2022/08/07 11:26:46;;;;;;;0.70;0.70;;;24.50;61.90;;;;;;5096546;27;43929;-72
2022/08/07 11:29:19;;;;;;;0.70;0.70;;;24.40;62.20;;;;;;5088875;27;44969;-73
2022/08/07 11:32:12;;;;;;;0.70;0.70;;;24.40;62.50;;;;;;5088896;27;44002;-72
2022/08/07 11:34:54;;;;;;;0.60;0.60;;;24.40;62.30;;;;;;5101375;27;43926;-71
2022/08/07 11:37:29;;;;;;;0.70;0.70;;;24.40;62.30;;;;;;5090985;27;43469;-71
2022/08/07 11:40:22;;;;;;;0.70;0.70;;;24.40;62.60;;;;;;5108178;27;44034;-73
2022/08/07 11:42:58;;;;;;;0.70;0.70;;;24.40;62.90;;;;;;5104529;27;44001;-72
2022/08/07 11:45:34;;;;;;;0.80;0.80;;;24.40;62.50;;;;;;5088798;27;44048;-72
2022/08/07 11:48:35;;;;;;;0.77;0.77;;;24.50;62.30;;;;;;5089132;27;44047;-72
2022/08/07 11:51:13;;;;;;;0.63;0.63;;;24.60;61.90;;;;;;5073224;27;43972;-72
2022/08/07 11:54:19;;;;;;;0.70;0.70;;;24.70;62.50;;;;;;5070261;27;45054;-72
2022/08/07 11:56:59;;;;;;;0.63;0.63;;;24.70;61.60;;;;;;5088886;27;44020;-72
2022/08/07 11:59:58;;;;;;;0.70;0.70;;;24.60;61.80;;;;;;5088880;27;43276;-72
2022/08/07 12:03:04;;;;;;;0.63;0.63;;;24.50;62.10;;;;;;5067017;28;45435;-71
2022/08/07 12:05:41;;;;;;;0.53;0.53;;;24.50;62.00;;;;;;5082798;27;43968;-72
2022/08/07 12:08:18;;;;;;;0.70;0.70;;;24.50;62.20;;;;;;5104630;27;43365;-73
2022/08/07 12:11:00;;;;;;;0.67;0.67;;;24.40;62.40;;;;;;5108436;27;44030;-72
2022/08/07 12:13:52;;;;;;;0.70;0.70;;;24.40;62.70;;;;;;5107644;27;44125;-72
2022/08/07 12:16:23;;;;;;;0.70;0.70;;;24.40;62.60;;;;;;5100188;27;44037;-72
2022/08/07 12:19:01;;;;;;;0.70;0.70;;;24.50;62.40;;;;;;5088503;27;44013;-73
2022/08/07 12:21:35;;;;;;;0.80;0.80;;;24.60;62.90;;;;;;5088566;27;44012;-72
2022/08/07 12:24:27;;;;;;;0.80;0.80;;;24.60;61.90;;;;;;5088426;27;43844;-71
2022/08/07 12:27:09;;;;;;;0.50;0.50;;;24.60;61.90;;;;;;5083617;27;43966;-73
2022/08/07 12:29:46;;;;;;;0.70;0.70;;;24.50;62.10;;;;;;5088243;27;43921;-72
2022/08/07 12:32:23;;;;;;;0.60;0.60;;;24.50;62.40;;;;;;5088273;27;43367;-73
2022/08/07 12:34:51;;;;;;;0.50;0.50;;;24.40;62.20;;;;;;5093432;27;44789;-72
2022/08/07 12:37:24;;;;;;;0.70;0.70;;;24.40;62.40;;;;;;5089214;27;44733;-72
2022/08/07 12:40:13;;;;;;;0.60;0.60;;;24.40;62.50;;;;;;5107636;27;44011;-72
2022/08/07 12:43:03;;;;;;;0.53;0.53;;;24.40;62.80;;;;;;5107682;27;43423;-73
2022/08/07 12:45:47;;;;;;;0.70;0.70;;;24.40;62.80;;;;;;5101495;27;44061;-72
2022/08/07 12:48:31;;;;;;;0.70;0.70;;;24.30;62.70;;;;;;5087861;27;43862;-72
2022/08/07 12:51:22;;;;;;;0.60;0.60;;;24.30;62.90;;;;;;5087852;27;44013;-73
2022/08/07 12:54:17;;;;;;;0.67;0.67;;;24.30;63.20;;;;;;5088475;27;43321;-72
2022/08/07 12:57:05;;;;;;;0.80;0.80;;;24.40;63.10;;;;;;5069404;28;45991;-72
2022/08/07 12:59:37;;;;;;;0.83;0.83;;;24.40;62.70;;;;;;5068911;28;44447;-72
2022/08/07 13:02:29;;;;;;;0.60;0.60;;;24.50;62.30;;;;;;5089501;27;43846;-72
2022/08/07 13:05:05;;;;;;;0.60;0.60;;;24.60;62.20;;;;;;5108388;27;43980;-74
2022/08/07 13:08:12;;;;;;;0.60;0.60;;;24.60;62.10;;;;;;5048715;28;46048;-72
2022/08/07 13:10:52;;;;;;;0.70;0.70;;;24.50;62.40;;;;;;5065397;27;45490;-72
2022/08/07 13:13:42;;;;;;;0.70;0.70;;;24.50;62.60;;;;;;5087781;27;43406;-72
2022/08/07 13:16:22;;;;;;;0.70;0.70;;;24.50;62.60;;;;;;5082511;27;43956;-71
2022/08/07 13:18:59;;;;;;;0.70;0.70;;;24.50;62.60;;;;;;5087590;27;45118;-71
2022/08/07 13:21:28;;;;;;;0.70;0.70;;;24.40;62.80;;;;;;5068891;27;44946;-72
2022/08/07 13:24:20;;;;;;;0.70;0.70;;;24.40;63.20;;;;;;5087563;27;43351;-72
2022/08/07 13:27:00;;;;;;;0.60;0.60;;;24.40;63.00;;;;;;5082232;27;44289;-72
2022/08/07 13:29:36;;;;;;;0.60;0.60;;;24.40;63.00;;;;;;5087178;27;43948;-73
2022/08/07 13:32:14;;;;;;;0.70;0.70;;;24.40;63.20;;;;;;5097334;27;43950;-71
2022/08/07 13:35:05;;;;;;;0.60;0.60;;;24.30;63.50;;;;;;5110994;27;44025;-72
2022/08/07 13:37:41;;;;;;;0.77;0.77;;;24.30;63.30;;;;;;5085937;27;43931;-73
2022/08/07 13:40:25;;;;;;;0.70;0.70;;;24.40;63.00;;;;;;5110400;27;44097;-72
2022/08/07 13:43:11;;;;;;;0.70;0.70;;;24.50;62.70;;;;;;5109888;27;43938;-72
2022/08/07 13:45:40;;;;;;;0.70;0.70;;;24.70;62.50;;;;;;5110670;27;43860;-71
2022/08/07 13:48:29;;;;;;;0.60;0.60;;;24.70;62.30;;;;;;5101890;27;43419;-71
2022/08/07 13:51:01;;;;;;;0.53;0.53;;;24.60;62.20;;;;;;5090538;27;44080;-72
2022/08/07 13:53:51;;;;;;;0.60;0.60;;;24.60;62.70;;;;;;5095647;27;44104;-72
2022/08/07 13:56:29;;;;;;;0.70;0.70;;;24.50;62.70;;;;;;5096820;27;43821;-72
2022/08/07 13:59:12;;;;;;;0.60;0.60;;;24.50;62.70;;;;;;5090961;27;44045;-72